Ocracoke, NC

5:32 PM EST on February 08, 2016 (GMT -0500)
The Ocracoke Harbor Inn/Silver Lake | | Change Station
CLOSE
Current Station
Personal Weather Station
Location: Ocracoke, NC
Elevation: 15 ft
Nearby Weather Stations
Active Advisory: Coastal Flood Advisory

Elev 15 ft 35.11 °N, 75.98 °W | Updated 18 seconds ago

Clear
Clear
51.1 °F
Feels Like 51.1 °F
N
8.0
Wind Variable Wind from SSW
Gusts 8.0 mph

Today
High -- | Low -- °F
--% Chance of Precip.
Yesterday
High -- | Low -- °F
Precip. -- in
Pressure 29.75 in
Visibility 10.0 miles
Clouds Clear
Dew Point 38 °F
Humidity 61%
Rainfall 0.00 in
Snow Depth Not available.
6:57 AM 5:39 PM
New Moon, 0% visible
METAR KHSE 082151Z AUTO 19003KT 10SM CLR 09/00 A2975 RMK AO2 SLP073 T00890000 TSNO
Pressure 29.75 in
Visibility 10.0 miles
Clouds Clear
Dew Point 38 °F
Humidity 61%
Rainfall 0.00 in
Snow Depth Not available.
6:57 AM 5:39 PM
New Moon, 0% visible
METAR KHSE 082151Z AUTO 19003KT 10SM CLR 09/00 A2975 RMK AO2 SLP073 T00890000 TSNO

10-Day Weather Forecast

Almanac

Astronomy

Feb. 08, 2016 Rise Set
Actual Time
Civil Twilight
Nautical Twilight
Astronomical Twilight
Moon
Length of Visible Light
Length of Day
Tomorrow will be .
, % of the Moon is Illuminated

Today's Extremes

State Highs State Lows

Community

WunderPhotos

Upload Photos

1,891,518 photos uploaded!

WunderBlog® & News

Nearby

Air Quality

  Air Quality AQ Index Pollutant
Not available.

Snow Depth

Station Depth Elevation

Earthquake Activity

City Distance Mag. Time & Date
Minimum magnitude displayed is 2.5.

Coastal Water Temperatures

Place Temperature

Stations

Nearby Weather Stations

Station Location Temp. Windchill Dew Point Humidity Wind Precip. Elev Updated Type
                   

Watches & Warnings

Coastal Flood Advisory
Issued: 3:12 PM EST Feb. 8, 2016 – National Weather Service

... Coastal Flood Advisory in effect until 11 am EST Tuesday...
... Coastal Flood Warning is cancelled...

The National Weather Service in Newport/Morehead City has issued
a coastal Flood Advisory... which is in effect until 11 am EST
Tuesday. The coastal Flood Warning has been cancelled.

* Location... vulnerable areas of Highway 12 susceptible to ocean
overwash from large swells.

* Coastal flooding... ocean overwash is the main concern around the
times of high tide this evening and Tuesday morning. Large
swells impacting the beaches could produce erosion and minor
ocean overwash. Water could briefly cover portions of Highway 12
in areas where the dunes have been breached during yesterdays
storm.

* Timing... this evening and again Tuesday morning around the times
of high tide. High tide occurs around 719 PM this evening and
745 am Tuesday.

* Impacts... minor ocean overwash and minor beach erosion.

Precautionary/preparedness actions...

A coastal Flood Advisory indicates that onshore winds and tides
and swell will combine to generate flooding of low areas along
the shore.